Time,TemperatureF,DewpointF,PressureIn,WindDirection,WindDirectionDegrees,WindSpeedMPH,WindSpeedGustMPH,Humidity,HourlyPrecipIn,Conditions,Clouds,dailyrainin,SoftwareType,DateUTC
2013-06-09 00:00:00,68.6,59.6,29.95,ESE,123,0.0,1.1,73,0.00,,,0.00,VWS V14.01,2013-06-09 05:00:00,
2013-06-09 00:15:00,68.7,60.1,29.96,ESE,104,0.0,1.1,74,0.00,,,0.00,VWS V14.01,2013-06-09 05:15:00,
2013-06-09 00:30:00,68.2,60.0,29.96,SE,127,0.0,1.1,75,0.00,,,0.00,VWS V14.01,2013-06-09 05:30:00,
2013-06-09 00:45:00,68.1,60.3,29.97,ESE,122,0.0,1.1,76,0.00,,,0.00,VWS V14.01,2013-06-09 05:45:00,
2013-06-09 01:00:00,68.4,60.5,29.97,ESE,115,0.0,1.1,76,0.00,,,0.00,VWS V14.01,2013-06-09 06:00:00,
2013-06-09 01:15:00,69.1,60.8,29.95,ESE,108,0.0,1.1,75,0.00,,,0.00,VWS V14.01,2013-06-09 06:15:00,
2013-06-09 01:30:00,69.8,60.8,29.95,SE,127,0.0,1.1,73,0.00,,,0.00,VWS V14.01,2013-06-09 06:30:00,
2013-06-09 01:45:00,70.1,60.7,29.94,ESE,113,0.0,1.1,72,0.00,,,0.00,VWS V14.01,2013-06-09 06:45:00,
2013-06-09 02:00:00,70.3,60.9,29.94,ESE,114,0.0,1.1,72,0.00,,,0.00,VWS V14.01,2013-06-09 07:00:00,
2013-06-09 02:15:00,70.4,60.6,29.94,SE,134,0.0,1.1,71,0.00,,,0.00,VWS V14.01,2013-06-09 07:15:00,
2013-06-09 02:30:00,70.2,60.8,29.94,ESE,117,0.0,2.3,72,0.00,,,0.00,VWS V14.01,2013-06-09 07:30:00,
2013-06-09 02:45:00,70.4,61.0,29.94,ESE,111,0.0,2.3,72,0.00,,,0.00,VWS V14.01,2013-06-09 07:45:00,
2013-06-09 03:00:00,70.5,60.7,29.94,ESE,122,0.0,2.3,71,0.00,,,0.00,VWS V14.01,2013-06-09 08:00:00,
2013-06-09 03:15:00,70.8,60.5,29.93,East,94,0.0,3.4,70,0.00,,,0.00,VWS V14.01,2013-06-09 08:15:00,
2013-06-09 03:30:00,71.0,60.7,29.92,SE,140,0.0,4.6,70,0.00,,,0.00,VWS V14.01,2013-06-09 08:30:00,
2013-06-09 03:45:00,70.9,60.6,29.92,SE,129,0.0,3.4,70,0.00,,,0.00,VWS V14.01,2013-06-09 08:45:00,
2013-06-09 04:00:00,70.7,60.8,29.93,ESE,119,0.0,3.4,71,0.00,,,0.00,VWS V14.01,2013-06-09 09:00:00,
2013-06-09 04:15:00,70.1,61.0,29.93,SW,214,0.0,1.1,73,0.00,,,0.00,VWS V14.01,2013-06-09 09:15:00,
2013-06-09 04:30:00,69.8,61.2,29.93,ESE,110,0.0,1.1,74,0.00,,,0.00,VWS V14.01,2013-06-09 09:30:00,
2013-06-09 04:45:00,69.4,61.1,29.92,East,81,1.1,2.3,75,0.00,,,0.00,VWS V14.01,2013-06-09 09:45:00,
2013-06-09 05:00:00,69.1,61.6,29.92,SSE,153,0.0,3.4,77,0.00,,,0.00,VWS V14.01,2013-06-09 10:00:00,
2013-06-09 05:15:00,68.7,61.6,29.92,ESE,113,1.1,4.6,78,0.00,,,0.00,VWS V14.01,2013-06-09 10:15:00,
2013-06-09 05:30:00,68.3,61.9,29.92,SSW,200,0.0,2.3,80,0.00,,,0.00,VWS V14.01,2013-06-09 10:30:00,
2013-06-09 05:45:00,67.9,61.9,29.91,ESE,113,0.0,3.4,81,0.00,,,0.00,VWS V14.01,2013-06-09 10:45:00,
2013-06-09 06:00:00,67.7,62.0,29.92,SE,130,0.0,1.1,82,0.00,,,0.00,VWS V14.01,2013-06-09 11:00:00,
2013-06-09 06:15:00,67.8,62.5,29.92,ESE,107,0.0,2.3,83,0.00,,,0.00,VWS V14.01,2013-06-09 11:15:00,
2013-06-09 06:30:00,68.1,63.1,29.91,South,182,0.0,2.3,84,0.00,,,0.00,VWS V14.01,2013-06-09 11:30:00,
2013-06-09 06:45:00,68.9,63.5,29.92,SW,231,1.1,3.4,83,0.00,,,0.00,VWS V14.01,2013-06-09 11:45:00,
2013-06-09 07:00:00,69.5,64.1,29.92,SE,140,0.0,2.3,83,0.00,,,0.00,VWS V14.01,2013-06-09 12:00:00,
2013-06-09 07:15:00,69.4,64.7,29.92,South,172,1.1,4.6,85,0.00,,,0.00,VWS V14.01,2013-06-09 12:15:00,
2013-06-09 07:30:00,69.9,65.5,29.92,South,173,2.3,4.6,86,0.00,,,0.00,VWS V14.01,2013-06-09 12:30:00,
2013-06-09 07:45:00,70.7,66.0,29.93,ESE,121,1.1,5.8,85,0.00,,,0.00,VWS V14.01,2013-06-09 12:45:00,
2013-06-09 07:58:00,72.0,67.2,29.93,ESE,108,4.6,4.6,85,0.00,,,0.00,VWS V14.01,2013-06-09 12:58:00,
2013-06-09 08:00:00,72.0,67.2,29.93,ESE,108,4.6,4.6,85,0.00,,,0.00,VWS V14.01,2013-06-09 13:00:00,
2013-06-09 08:13:00,74.0,68.2,29.92,SW,222,2.3,8.1,82,0.00,,,0.00,VWS V14.01,2013-06-09 13:13:00,
2013-06-09 08:15:00,74.0,68.2,29.92,SW,222,2.3,8.1,82,0.00,,,0.00,VWS V14.01,2013-06-09 13:15:00,
2013-06-09 08:28:00,75.4,68.8,29.93,SSE,167,3.4,9.2,80,0.00,,,0.00,VWS V14.01,2013-06-09 13:28:00,
2013-06-09 08:30:00,75.4,68.8,29.93,SSE,167,3.4,9.2,80,0.00,,,0.00,VWS V14.01,2013-06-09 13:30:00,
2013-06-09 08:43:00,77.8,69.2,29.93,SSW,201,4.6,10.3,75,0.00,,,0.00,VWS V14.01,2013-06-09 13:43:00,
2013-06-09 08:45:00,77.8,69.2,29.93,SSW,201,4.6,10.3,75,0.00,,,0.00,VWS V14.01,2013-06-09 13:45:00,
2013-06-09 08:58:00,77.4,68.9,29.93,SSW,210,3.4,8.1,75,0.00,,,0.00,VWS V14.01,2013-06-09 13:58:00,
2013-06-09 09:00:00,77.4,68.9,29.93,SSW,210,3.4,8.1,75,0.00,,,0.00,VWS V14.01,2013-06-09 14:00:00,
2013-06-09 09:13:00,77.0,69.2,29.93,SW,226,3.4,10.3,77,0.00,,,0.00,VWS V14.01,2013-06-09 14:13:00,
2013-06-09 09:15:00,77.0,69.2,29.93,SW,226,3.4,10.3,77,0.00,,,0.00,VWS V14.01,2013-06-09 14:15:00,
2013-06-09 09:28:00,78.0,69.8,29.93,South,178,0.0,6.9,76,0.00,,,0.00,VWS V14.01,2013-06-09 14:28:00,
2013-06-09 09:30:00,78.0,69.8,29.93,South,178,0.0,6.9,76,0.00,,,0.00,VWS V14.01,2013-06-09 14:30:00,
2013-06-09 09:43:00,79.7,70.3,29.93,ESE,112,1.1,10.3,73,0.00,,,0.00,VWS V14.01,2013-06-09 14:43:00,
2013-06-09 09:45:00,79.7,70.3,29.93,ESE,112,1.1,10.3,73,0.00,,,0.00,VWS V14.01,2013-06-09 14:45:00,
2013-06-09 09:58:00,80.5,70.2,29.93,South,174,4.6,9.2,71,0.00,,,0.00,VWS V14.01,2013-06-09 14:58:00,
2013-06-09 10:00:00,80.5,70.2,29.93,South,174,4.6,9.2,71,0.00,,,0.00,VWS V14.01,2013-06-09 15:00:00,
2013-06-09 10:13:00,81.1,70.0,29.93,South,176,5.8,10.3,69,0.00,,,0.00,VWS V14.01,2013-06-09 15:13:00,
2013-06-09 10:15:00,81.1,70.0,29.93,South,176,5.8,10.3,69,0.00,,,0.00,VWS V14.01,2013-06-09 15:15:00,
2013-06-09 10:28:00,80.5,69.8,29.94,South,176,6.9,12.6,70,0.00,,,0.00,VWS V14.01,2013-06-09 15:28:00,
2013-06-09 10:30:00,80.5,69.8,29.94,South,176,6.9,12.6,70,0.00,,,0.00,VWS V14.01,2013-06-09 15:30:00,
2013-06-09 10:43:00,81.0,69.4,29.94,South,170,6.9,12.6,68,0.00,,,0.00,VWS V14.01,2013-06-09 15:43:00,
2013-06-09 10:45:00,81.0,69.4,29.94,South,170,6.9,12.6,68,0.00,,,0.00,VWS V14.01,2013-06-09 15:45:00,
2013-06-09 10:58:00,82.2,70.2,29.93,SSW,212,3.4,10.3,67,0.00,,,0.00,VWS V14.01,2013-06-09 15:58:00,
2013-06-09 11:00:00,82.2,70.2,29.93,SSW,212,3.4,10.3,67,0.00,,,0.00,VWS V14.01,2013-06-09 16:00:00,
2013-06-09 11:13:00,82.3,70.3,29.93,East,79,3.4,11.5,67,0.00,,,0.00,VWS V14.01,2013-06-09 16:13:00,
2013-06-09 11:15:00,82.3,70.3,29.93,East,79,3.4,11.5,67,0.00,,,0.00,VWS V14.01,2013-06-09 16:15:00,
2013-06-09 11:28:00,83.6,70.6,29.92,SW,215,4.6,12.6,65,0.00,,,0.00,VWS V14.01,2013-06-09 16:28:00,
2013-06-09 11:30:00,83.6,70.6,29.92,SW,215,4.6,12.6,65,0.00,,,0.00,VWS V14.01,2013-06-09 16:30:00,
2013-06-09 11:43:00,83.9,70.9,29.91,East,101,3.4,12.6,65,0.00,,,0.00,VWS V14.01,2013-06-09 16:43:00,
2013-06-09 11:45:00,83.9,70.9,29.91,East,101,3.4,12.6,65,0.00,,,0.00,VWS V14.01,2013-06-09 16:45:00,
2013-06-09 11:58:00,84.0,71.0,29.91,South,176,3.4,10.3,65,0.00,,,0.00,VWS V14.01,2013-06-09 16:58:00,
2013-06-09 12:00:00,84.0,71.0,29.91,South,176,3.4,10.3,65,0.00,,,0.00,VWS V14.01,2013-06-09 17:00:00,
2013-06-09 12:13:00,83.8,69.9,29.90,SSW,201,4.6,11.5,63,0.00,,,0.00,VWS V14.01,2013-06-09 17:13:00,
2013-06-09 12:15:00,83.8,69.9,29.90,SSW,201,4.6,11.5,63,0.00,,,0.00,VWS V14.01,2013-06-09 17:15:00,
2013-06-09 12:28:00,84.4,70.9,29.90,SE,146,1.1,9.2,64,0.00,,,0.00,VWS V14.01,2013-06-09 17:28:00,
2013-06-09 12:30:00,84.4,70.9,29.90,SE,146,1.1,9.2,64,0.00,,,0.00,VWS V14.01,2013-06-09 17:30:00,
2013-06-09 12:43:00,86.5,71.0,29.89,SW,229,4.6,10.3,60,0.00,,,0.00,VWS V14.01,2013-06-09 17:43:00,
2013-06-09 12:45:00,86.5,71.0,29.89,SW,229,4.6,10.3,60,0.00,,,0.00,VWS V14.01,2013-06-09 17:45:00,
2013-06-09 12:58:00,85.5,70.0,29.88,South,177,4.6,9.2,60,0.00,,,0.00,VWS V14.01,2013-06-09 17:58:00,
2013-06-09 13:00:00,85.5,70.0,29.88,South,177,4.6,9.2,60,0.00,,,0.00,VWS V14.01,2013-06-09 18:00:00,
2013-06-09 13:13:00,86.1,70.6,29.88,SE,135,3.4,13.8,60,0.00,,,0.00,VWS V14.01,2013-06-09 18:13:00,
2013-06-09 13:15:00,86.1,70.6,29.88,SE,135,3.4,13.8,60,0.00,,,0.00,VWS V14.01,2013-06-09 18:15:00,
2013-06-09 13:28:00,87.1,70.5,29.87,SW,233,3.4,12.6,58,0.00,,,0.00,VWS V14.01,2013-06-09 18:28:00,
2013-06-09 13:30:00,87.1,70.5,29.87,SW,233,3.4,12.6,58,0.00,,,0.00,VWS V14.01,2013-06-09 18:30:00,
2013-06-09 13:43:00,87.4,70.8,29.86,South,184,3.4,10.3,58,0.00,,,0.00,VWS V14.01,2013-06-09 18:43:00,
2013-06-09 13:45:00,87.4,70.8,29.86,South,184,3.4,10.3,58,0.00,,,0.00,VWS V14.01,2013-06-09 18:45:00,
2013-06-09 13:58:00,87.7,71.1,29.85,South,181,4.6,10.3,58,0.00,,,0.00,VWS V14.01,2013-06-09 18:58:00,
2013-06-09 14:00:00,87.7,71.1,29.85,South,181,4.6,10.3,58,0.00,,,0.00,VWS V14.01,2013-06-09 19:00:00,
2013-06-09 14:13:00,88.4,71.2,29.84,SSE,153,1.1,10.3,57,0.00,,,0.00,VWS V14.01,2013-06-09 19:13:00,
2013-06-09 14:15:00,88.4,71.2,29.84,SSE,153,1.1,10.3,57,0.00,,,0.00,VWS V14.01,2013-06-09 19:15:00,
2013-06-09 14:28:00,88.1,70.4,29.84,WSW,256,4.6,13.8,56,0.00,,,0.00,VWS V14.01,2013-06-09 19:28:00,
2013-06-09 14:30:00,88.1,70.4,29.84,WSW,256,4.6,13.8,56,0.00,,,0.00,VWS V14.01,2013-06-09 19:30:00,
2013-06-09 14:43:00,89.3,71.6,29.83,South,179,2.3,10.3,56,0.00,,,0.00,VWS V14.01,2013-06-09 19:43:00,
2013-06-09 14:45:00,89.3,71.6,29.83,South,179,2.3,10.3,56,0.00,,,0.00,VWS V14.01,2013-06-09 19:45:00,
2013-06-09 14:58:00,89.2,70.9,29.83,South,174,3.4,13.8,55,0.00,,,0.00,VWS V14.01,2013-06-09 19:58:00,
2013-06-09 15:00:00,89.2,70.9,29.83,South,174,3.4,13.8,55,0.00,,,0.00,VWS V14.01,2013-06-09 20:00:00,
2013-06-09 15:13:00,89.4,70.6,29.83,SSW,205,6.9,12.6,54,0.00,,,0.00,VWS V14.01,2013-06-09 20:13:00,
2013-06-09 15:15:00,89.4,70.6,29.83,SSW,205,6.9,12.6,54,0.00,,,0.00,VWS V14.01,2013-06-09 20:15:00,
2013-06-09 15:28:00,90.5,69.3,29.83,South,171,3.4,11.5,50,0.00,,,0.00,VWS V14.01,2013-06-09 20:28:00,
2013-06-09 15:30:00,90.5,69.3,29.83,South,171,3.4,11.5,50,0.00,,,0.00,VWS V14.01,2013-06-09 20:30:00,
2013-06-09 15:43:00,89.4,68.3,29.82,SSW,204,2.3,10.3,50,0.00,,,0.00,VWS V14.01,2013-06-09 20:43:00,
2013-06-09 15:45:00,89.4,68.3,29.82,SSW,204,2.3,10.3,50,0.00,,,0.00,VWS V14.01,2013-06-09 20:45:00,
2013-06-09 15:58:00,90.0,67.1,29.82,SW,215,3.4,11.5,47,0.00,,,0.00,VWS V14.01,2013-06-09 20:58:00,
2013-06-09 16:00:00,90.0,67.1,29.82,SW,215,3.4,11.5,47,0.00,,,0.00,VWS V14.01,2013-06-09 21:00:00,
2013-06-09 16:13:00,89.4,70.0,29.81,SE,135,2.3,8.1,53,0.00,,,0.00,VWS V14.01,2013-06-09 21:13:00,
2013-06-09 16:15:00,89.4,70.0,29.81,SE,135,2.3,8.1,53,0.00,,,0.00,VWS V14.01,2013-06-09 21:15:00,
2013-06-09 16:28:00,88.0,69.3,29.81,SW,226,2.3,10.3,54,0.00,,,0.00,VWS V14.01,2013-06-09 21:28:00,
2013-06-09 16:30:00,88.0,69.3,29.81,SW,226,2.3,10.3,54,0.00,,,0.00,VWS V14.01,2013-06-09 21:30:00,
2013-06-09 16:43:00,87.2,69.6,29.80,SSE,159,1.1,8.1,56,0.00,,,0.00,VWS V14.01,2013-06-09 21:43:00,
2013-06-09 16:45:00,87.2,69.6,29.80,SSE,159,1.1,8.1,56,0.00,,,0.00,VWS V14.01,2013-06-09 21:45:00,
2013-06-09 16:58:00,87.5,69.9,29.80,SSE,158,2.3,6.9,56,0.00,,,0.00,VWS V14.01,2013-06-09 21:58:00,
2013-06-09 17:00:00,87.5,69.9,29.80,SSE,158,2.3,6.9,56,0.00,,,0.00,VWS V14.01,2013-06-09 22:00:00,
2013-06-09 17:13:00,88.1,68.8,29.80,SW,217,0.0,9.2,53,0.00,,,0.00,VWS V14.01,2013-06-09 22:13:00,
2013-06-09 17:15:00,88.1,68.8,29.80,SW,217,0.0,9.2,53,0.00,,,0.00,VWS V14.01,2013-06-09 22:15:00,
2013-06-09 17:28:00,87.7,69.0,29.80,NW,315,4.6,14.9,54,0.00,,,0.00,VWS V14.01,2013-06-09 22:28:00,
2013-06-09 17:45:00,82.5,67.7,29.81,SSW,193,5.8,9.2,61,0.00,,,0.00,VWS V14.01,2013-06-09 22:45:00,
2013-06-09 17:58:00,79.7,68.2,29.82,NNE,15,3.4,8.1,68,0.00,,,0.00,VWS V14.01,2013-06-09 22:58:00,
2013-06-09 18:13:00,77.5,68.2,29.81,NNW,338,2.3,9.2,73,0.00,,,0.00,VWS V14.01,2013-06-09 23:13:00,
2013-06-09 18:28:00,77.4,68.5,29.81,WSW,242,0.0,8.1,74,0.00,,,0.00,VWS V14.01,2013-06-09 23:28:00,
2013-06-09 18:43:00,78.1,68.8,29.82,SW,228,0.0,2.3,73,0.00,,,0.00,VWS V14.01,2013-06-09 23:43:00,
2013-06-09 18:58:00,77.9,67.8,29.83,ESE,117,0.0,2.3,71,0.00,,,0.00,VWS V14.01,2013-06-09 23:58:00,
2013-06-09 19:13:00,78.4,68.6,29.83,SSE,159,0.0,1.1,72,0.00,,,0.00,VWS V14.01,2013-06-10 00:13:00,
2013-06-09 19:28:00,77.7,68.4,29.84,East,101,0.0,1.1,73,0.00,,,0.00,VWS V14.01,2013-06-10 00:28:00,
2013-06-09 19:43:00,76.8,68.3,29.84,NE,49,0.0,3.4,75,0.00,,,0.00,VWS V14.01,2013-06-10 00:43:00,
2013-06-09 19:58:00,76.5,68.0,29.84,NE,43,0.0,5.8,75,0.00,,,0.00,VWS V14.01,2013-06-10 00:58:00,
2013-06-09 20:13:00,76.2,68.8,29.84,East,98,0.0,3.4,78,0.00,,,0.00,VWS V14.01,2013-06-10 01:13:00,
2013-06-09 20:28:00,75.2,70.0,29.84,ESE,119,1.1,5.8,84,0.00,,,0.00,VWS V14.01,2013-06-10 01:28:00,
2013-06-09 20:43:00,74.4,70.3,29.85,SSE,168,0.0,5.8,87,0.00,,,0.00,VWS V14.01,2013-06-10 01:43:00,
2013-06-09 20:58:00,74.0,69.9,29.85,ESE,104,0.0,1.1,87,0.00,,,0.00,VWS V14.01,2013-06-10 01:58:00,
2013-06-09 21:13:00,73.7,69.6,29.86,ESE,109,0.0,1.1,87,0.00,,,0.00,VWS V14.01,2013-06-10 02:13:00,
2013-06-09 21:28:00,73.0,69.2,29.87,ESE,109,0.0,0.0,88,0.00,,,0.00,VWS V14.01,2013-06-10 02:28:00,
2013-06-09 21:43:00,72.7,69.3,29.88,ESE,109,0.0,0.0,89,0.00,,,0.00,VWS V14.01,2013-06-10 02:43:00,
2013-06-09 21:58:00,73.1,69.3,29.88,South,188,1.1,3.4,88,0.00,,,0.00,VWS V14.01,2013-06-10 02:58:00,
2013-06-09 22:13:00,72.6,69.2,29.87,ESE,119,0.0,3.4,89,0.00,,,0.00,VWS V14.01,2013-06-10 03:13:00,
2013-06-09 22:28:00,72.0,68.9,29.87,ESE,117,0.0,2.3,90,0.00,,,0.00,VWS V14.01,2013-06-10 03:28:00,
2013-06-09 22:43:00,71.5,69.1,29.87,South,172,0.0,2.3,92,0.00,,,0.00,VWS V14.01,2013-06-10 03:43:00,
2013-06-09 22:58:00,71.3,69.2,29.87,SE,125,1.1,3.4,93,0.00,,,0.00,VWS V14.01,2013-06-10 03:58:00,
2013-06-09 23:13:00,71.0,69.2,29.87,SE,146,0.0,3.4,94,0.00,,,0.00,VWS V14.01,2013-06-10 04:13:00,
2013-06-09 23:28:00,70.9,69.1,29.87,South,190,1.1,4.6,94,0.00,,,0.00,VWS V14.01,2013-06-10 04:28:00,
2013-06-09 23:43:00,70.7,69.2,29.87,South,176,0.0,3.4,95,0.00,,,0.00,VWS V14.01,2013-06-10 04:43:00,
2013-06-09 23:58:00,70.7,69.2,29.87,South,186,0.0,3.4,95,0.00,,,0.00,VWS V14.01,2013-06-10 04:58:00,